createdAt,value
2017-11-23T00:02:06.702Z,99279.19
2017-11-23T00:04:33.701Z,99290.16
2017-11-23T00:07:00.051Z,99284.92
2017-11-23T00:09:26.363Z,99275.08
2017-11-23T00:11:53.445Z,99274.24
2017-11-23T00:14:19.754Z,99278.09
2017-11-23T00:16:46.005Z,99276.81
2017-11-23T00:19:12.322Z,99283.97
2017-11-23T00:21:38.589Z,99280.78
2017-11-23T00:24:04.899Z,99275.01
2017-11-23T00:26:31.222Z,99271.06
2017-11-23T00:28:57.559Z,99270.70
2017-11-23T00:31:23.810Z,99255.25
2017-11-23T00:33:50.093Z,99264.13
2017-11-23T00:36:16.417Z,99267.16
2017-11-23T00:38:43.485Z,99275.67
2017-11-23T00:41:09.821Z,99276.53
2017-11-23T00:43:36.153Z,99271.09
2017-11-23T00:46:02.484Z,99269.78
2017-11-23T00:48:28.735Z,99265.16
2017-11-23T00:50:55.042Z,99264.63
2017-11-23T00:53:21.346Z,99264.30
2017-11-23T00:55:48.409Z,99272.23
2017-11-23T00:58:14.727Z,99248.90
2017-11-23T01:00:41.807Z,99280.25
2017-11-23T01:03:08.463Z,99270.38
2017-11-23T01:05:34.774Z,99265.98
2017-11-23T01:08:01.100Z,99257.98
2017-11-23T01:10:27.428Z,99265.59
2017-11-23T01:12:53.763Z,99269.61
2017-11-23T01:15:20.082Z,99270.11
2017-11-23T01:17:46.419Z,99276.23
2017-11-23T01:20:12.737Z,99274.70
2017-11-23T01:22:39.737Z,99280.68
2017-11-23T01:25:05.999Z,99280.20
2017-11-23T01:27:32.330Z,99273.31
2017-11-23T01:29:59.398Z,99274.19
2017-11-23T01:32:25.717Z,99269.78
2017-11-23T01:34:52.006Z,99261.45
2017-11-23T01:37:18.286Z,99247.78
2017-11-23T01:39:44.656Z,99242.86
2017-11-23T01:42:11.046Z,99244.59
2017-11-23T01:44:38.050Z,99237.52
2017-11-23T01:47:04.316Z,99239.29
2017-11-23T01:49:31.376Z,99235.91
2017-11-23T01:51:57.707Z,99242.19
2017-11-23T01:54:24.028Z,99236.11
2017-11-23T01:56:51.055Z,99237.30
2017-11-23T01:59:17.316Z,99231.77
2017-11-23T02:01:43.650Z,99236.08
2017-11-23T02:04:09.930Z,99233.80
2017-11-23T02:06:36.219Z,99238.19
2017-11-23T02:09:02.450Z,99234.01
2017-11-23T02:11:28.795Z,99239.95
2017-11-23T02:13:55.077Z,99231.78
2017-11-23T02:16:22.114Z,99233.78
2017-11-23T02:18:48.379Z,99230.00
2017-11-23T02:21:14.667Z,99225.58
2017-11-23T02:23:40.946Z,99222.02
2017-11-23T02:26:07.261Z,99227.94
2017-11-23T02:28:33.567Z,99226.14
2017-11-23T02:30:59.847Z,99231.96
2017-11-23T02:33:26.149Z,99226.00
2017-11-23T02:35:53.168Z,99223.93
2017-11-23T02:38:19.464Z,99223.63
2017-11-23T02:40:45.808Z,99221.97
2017-11-23T02:43:12.240Z,99226.55
2017-11-23T02:45:38.522Z,99227.09
2017-11-23T02:48:04.864Z,99226.16
2017-11-23T02:50:31.186Z,99224.94
2017-11-23T02:52:58.236Z,99223.63
2017-11-23T02:55:24.540Z,99214.88
2017-11-23T02:57:50.973Z,99217.19
2017-11-23T03:00:17.258Z,99219.82
2017-11-23T03:02:43.567Z,99223.52
2017-11-23T03:05:09.825Z,99231.20
2017-11-23T03:07:36.089Z,99224.25
2017-11-23T03:10:02.346Z,99222.50
2017-11-23T03:12:29.325Z,99223.05
2017-11-23T03:14:55.663Z,99214.54
2017-11-23T03:17:21.960Z,99202.19
2017-11-23T03:19:48.253Z,99196.09
2017-11-23T03:22:14.543Z,99209.27
2017-11-23T03:24:40.874Z,99201.66
2017-11-23T03:27:07.189Z,99200.58
2017-11-23T03:29:33.513Z,99198.76
2017-11-23T03:32:00.865Z,99198.54
2017-11-23T03:34:27.977Z,99206.86
2017-11-23T03:36:54.280Z,99206.44
2017-11-23T03:39:20.605Z,99211.28
2017-11-23T03:41:46.872Z,99196.36
2017-11-23T03:44:13.164Z,99200.48
2017-11-23T03:46:39.461Z,99203.38
2017-11-23T03:49:06.479Z,99197.12
2017-11-23T03:51:32.743Z,99194.44
2017-11-23T03:53:59.002Z,99186.05
2017-11-23T03:56:25.300Z,99182.92
2017-11-23T03:58:52.295Z,99182.68
2017-11-23T04:01:18.574Z,99176.02
2017-11-23T04:03:45.574Z,99169.45
2017-11-23T04:06:11.847Z,99177.36
2017-11-23T04:08:38.883Z,99182.84
2017-11-23T04:11:05.140Z,99180.89
2017-11-23T04:13:31.375Z,99171.50
2017-11-23T04:15:57.667Z,99171.38
2017-11-23T04:18:23.949Z,99171.38
2017-11-23T04:20:50.256Z,99166.07
2017-11-23T04:23:17.268Z,99167.69
2017-11-23T04:25:44.317Z,99165.78
2017-11-23T04:28:10.605Z,99171.96
2017-11-23T04:30:36.856Z,99175.17
2017-11-23T04:33:03.153Z,99172.67
2017-11-23T04:35:29.419Z,99169.50
2017-11-23T04:37:55.703Z,99166.42
2017-11-23T04:40:21.962Z,99178.69
2017-11-23T04:42:48.237Z,99171.49
2017-11-23T04:45:14.513Z,99176.98
2017-11-23T04:47:40.823Z,99174.66
2017-11-23T04:50:07.083Z,99168.30
2017-11-23T04:52:33.376Z,99170.84
2017-11-23T04:55:00.409Z,99168.66
2017-11-23T04:57:27.456Z,99169.27
2017-11-23T04:59:54.467Z,99165.55
2017-11-23T05:02:20.746Z,99163.98
2017-11-23T05:04:47.878Z,99166.80
2017-11-23T05:07:14.150Z,99175.34
2017-11-23T05:09:40.428Z,99175.76
2017-11-23T05:12:06.707Z,99172.16
2017-11-23T05:14:32.942Z,99179.30
2017-11-23T05:16:59.229Z,99186.86
2017-11-23T05:19:25.463Z,99191.53
2017-11-23T05:21:52.469Z,99191.81
2017-11-23T05:24:18.775Z,99184.41
2017-11-23T05:26:45.042Z,99182.80
2017-11-23T05:29:11.320Z,99177.39
2017-11-23T05:31:37.607Z,99181.15
2017-11-23T05:34:03.919Z,99179.34
2017-11-23T05:36:30.164Z,99176.23
2017-11-23T05:38:56.477Z,99173.82
2017-11-23T05:41:22.745Z,99181.62
2017-11-23T05:43:49.039Z,99188.92
2017-11-23T05:46:15.891Z,99183.81
2017-11-23T05:48:42.137Z,99187.20
2017-11-23T05:51:08.387Z,99189.24
2017-11-23T05:53:35.381Z,99201.56
2017-11-23T05:56:01.636Z,99206.66
2017-11-23T05:58:27.905Z,99207.33
2017-11-23T06:00:55.240Z,99209.92
2017-11-23T06:03:22.282Z,99198.22
2017-11-23T06:05:48.595Z,99198.22
2017-11-23T06:08:14.882Z,99200.22
2017-11-23T06:10:41.162Z,99207.33
2017-11-23T06:13:07.435Z,99209.56
2017-11-23T06:15:33.730Z,99207.14
2017-11-23T06:18:00.032Z,99209.00
2017-11-23T06:20:26.487Z,99211.08
2017-11-23T06:22:52.893Z,99214.98
2017-11-23T06:25:19.152Z,99216.27
2017-11-23T06:27:45.506Z,99204.62
2017-11-23T06:30:12.499Z,99212.65
2017-11-23T06:32:38.756Z,99208.11
2017-11-23T06:35:05.037Z,99208.02
2017-11-23T06:37:31.394Z,99215.87
2017-11-23T06:39:57.747Z,99213.27
2017-11-23T06:42:25.561Z,99213.17
2017-11-23T06:44:51.925Z,99228.05
2017-11-23T06:47:18.249Z,99238.36
2017-11-23T06:49:44.485Z,99237.67
2017-11-23T06:52:10.747Z,99232.05
2017-11-23T06:54:37.046Z,99227.08
2017-11-23T06:57:03.341Z,99232.52
2017-11-23T06:59:29.590Z,99236.74
2017-11-23T07:01:56.665Z,99232.00
2017-11-23T07:04:22.941Z,99228.79
2017-11-23T07:06:49.932Z,99238.78
2017-11-23T07:09:16.261Z,99237.99
2017-11-23T07:11:43.807Z,99236.41
2017-11-23T07:14:11.369Z,99234.79
2017-11-23T07:16:38.930Z,99231.43
2017-11-23T07:19:06.179Z,99224.13
2017-11-23T07:21:33.857Z,99230.40
2017-11-23T07:24:01.005Z,99236.20
2017-11-23T07:26:28.349Z,99226.84
2017-11-23T07:28:55.430Z,99232.05
2017-11-23T07:31:22.465Z,99232.65
2017-11-23T07:33:48.738Z,99228.19
2017-11-23T07:36:15.724Z,99225.31
2017-11-23T07:38:41.954Z,99228.78
2017-11-23T07:41:08.897Z,99225.08
2017-11-23T07:43:35.234Z,99232.72
2017-11-23T07:46:01.560Z,99226.03
2017-11-23T07:48:27.792Z,99216.16
2017-11-23T07:50:54.070Z,99218.82
2017-11-23T07:53:21.361Z,99223.73
2017-11-23T07:55:47.616Z,99223.34
2017-11-23T07:58:13.947Z,99230.26
2017-11-23T08:00:40.204Z,99228.84
2017-11-23T08:03:06.476Z,99230.98
2017-11-23T08:05:33.743Z,99229.60
2017-11-23T08:08:00.950Z,99227.47
2017-11-23T08:10:28.002Z,99222.25
2017-11-23T08:12:56.016Z,99219.61
2017-11-23T08:15:23.169Z,99223.89
2017-11-23T08:17:50.584Z,99227.03
2017-11-23T08:20:18.591Z,99224.25
2017-11-23T08:22:45.942Z,99216.78
2017-11-23T08:25:13.312Z,99213.77
2017-11-23T08:27:41.000Z,99217.47
2017-11-23T08:30:08.215Z,99225.38
2017-11-23T08:32:35.572Z,99226.44
2017-11-23T08:35:03.232Z,99217.39
2017-11-23T08:37:31.305Z,99216.06
2017-11-23T08:39:58.195Z,99212.74
2017-11-23T08:42:26.117Z,99211.09
2017-11-23T08:44:53.370Z,99213.98
2017-11-23T08:47:20.628Z,99216.11
2017-11-23T08:49:48.505Z,99221.31
2017-11-23T08:52:19.329Z,99222.80
2017-11-23T08:54:54.367Z,99209.80
2017-11-23T08:57:21.617Z,99207.84
2017-11-23T08:59:49.995Z,99207.47
2017-11-23T09:02:18.067Z,99209.70
2017-11-23T09:04:45.013Z,99211.53
2017-11-23T09:07:12.061Z,99207.98
2017-11-23T09:09:40.765Z,99224.07
2017-11-23T09:12:14.661Z,99224.91
2017-11-23T09:14:42.218Z,99233.84
2017-11-23T09:17:09.775Z,99231.00
2017-11-23T09:19:36.746Z,99237.16
2017-11-23T09:22:03.234Z,99244.91
2017-11-23T09:24:30.207Z,99244.50
2017-11-23T09:26:56.837Z,99239.65
2017-11-23T09:29:23.281Z,99239.92
2017-11-23T09:31:49.609Z,99235.77
2017-11-23T09:34:15.944Z,99243.81
2017-11-23T09:36:42.203Z,99242.50
2017-11-23T09:39:08.517Z,99238.62
2017-11-23T09:41:34.993Z,99251.74
2017-11-23T09:44:02.076Z,99247.84
2017-11-23T09:46:28.426Z,99243.18
2017-11-23T09:48:55.025Z,99244.44
2017-11-23T09:51:21.322Z,99242.77
2017-11-23T09:53:47.735Z,99239.28
2017-11-23T09:56:14.970Z,99238.81
2017-11-23T09:58:41.432Z,99235.84
2017-11-23T10:01:07.780Z,99244.53
2017-11-23T10:03:35.040Z,99234.39
2017-11-23T10:06:02.171Z,99222.05
2017-11-23T10:08:28.466Z,99222.41
2017-11-23T10:10:54.918Z,99229.13
2017-11-23T10:13:21.223Z,99221.16
2017-11-23T10:15:49.141Z,99218.38
2017-11-23T10:18:15.500Z,99228.00
2017-11-23T10:20:42.991Z,99222.00
2017-11-23T10:23:09.729Z,99221.78
2017-11-23T10:25:36.344Z,99217.64
2017-11-23T10:28:03.422Z,99206.21
2017-11-23T10:30:29.838Z,99212.84
2017-11-23T10:32:56.110Z,99218.48
2017-11-23T10:35:22.407Z,99218.09
2017-11-23T10:37:49.683Z,99226.62
2017-11-23T10:40:16.049Z,99220.41
2017-11-23T10:42:43.110Z,99221.58
2017-11-23T10:45:10.564Z,99220.17
2017-11-23T10:47:38.574Z,99218.67
2017-11-23T10:50:04.923Z,99220.25
2017-11-23T10:52:31.223Z,99219.41
2017-11-23T10:54:57.831Z,99222.72
2017-11-23T10:57:24.935Z,99220.66
2017-11-23T10:59:51.315Z,99228.59
2017-11-23T11:02:18.466Z,99228.36
2017-11-23T11:04:45.672Z,99230.94
2017-11-23T11:07:13.011Z,99230.05
2017-11-23T11:09:39.484Z,99232.16
2017-11-23T11:12:05.807Z,99234.63
2017-11-23T11:14:32.071Z,99238.19
2017-11-23T11:16:59.109Z,99244.52
2017-11-23T11:19:25.451Z,99240.28
2017-11-23T11:21:52.637Z,99227.42
2017-11-23T11:24:19.675Z,99222.73
2017-11-23T11:26:46.093Z,99222.72
2017-11-23T11:29:13.257Z,99220.09
2017-11-23T11:31:39.571Z,99218.48
2017-11-23T11:34:06.650Z,99205.64
2017-11-23T11:36:33.004Z,99204.73
2017-11-23T11:39:00.627Z,99196.19
2017-11-23T11:41:27.881Z,99203.61
2017-11-23T11:43:55.265Z,99205.45
2017-11-23T11:46:22.398Z,99199.98
2017-11-23T11:48:48.969Z,99203.77
2017-11-23T11:51:15.409Z,99192.67
2017-11-23T11:53:41.693Z,99207.76
2017-11-23T11:56:08.010Z,99208.17
2017-11-23T11:58:35.358Z,99207.02
2017-11-23T12:01:02.458Z,99206.69
2017-11-23T12:03:30.278Z,99197.29
2017-11-23T12:05:56.662Z,99199.09
2017-11-23T12:08:22.973Z,99199.20
2017-11-23T12:10:49.305Z,99207.93
2017-11-23T12:13:15.637Z,99202.69
2017-11-23T12:16:00.758Z,99199.69
2017-11-23T12:18:33.636Z,99199.52
2017-11-23T12:21:18.266Z,99210.94
2017-11-23T12:23:44.559Z,99196.17
2017-11-23T12:26:10.833Z,99196.16
2017-11-23T12:28:50.194Z,99199.91
2017-11-23T12:31:16.510Z,99192.77
2017-11-23T12:33:42.806Z,99196.39
2017-11-23T12:36:09.121Z,99193.87
2017-11-23T12:38:35.406Z,99197.61
2017-11-23T12:41:01.706Z,99188.13
2017-11-23T12:43:27.982Z,99192.95
2017-11-23T12:45:55.013Z,99189.64
2017-11-23T12:48:21.296Z,99186.35
2017-11-23T12:50:47.579Z,99188.39
2017-11-23T12:53:13.856Z,99189.62
2017-11-23T12:55:40.189Z,99193.50
2017-11-23T12:58:06.495Z,99187.33
2017-11-23T13:00:32.722Z,99187.16
2017-11-23T13:02:59.738Z,99178.51
2017-11-23T13:05:26.030Z,99179.14
2017-11-23T13:07:52.347Z,99177.19
2017-11-23T13:10:18.635Z,99183.91
2017-11-23T13:12:44.936Z,99182.00
2017-11-23T13:15:11.220Z,99185.27
2017-11-23T13:17:38.275Z,99178.66
2017-11-23T13:20:04.585Z,99178.90
2017-11-23T13:22:30.917Z,99177.22
2017-11-23T13:24:57.197Z,99178.90
2017-11-23T13:27:23.471Z,99183.22
2017-11-23T13:29:50.591Z,99172.80
2017-11-23T13:32:16.900Z,99168.47
2017-11-23T13:34:43.261Z,99167.47
2017-11-23T13:37:09.545Z,99167.47
2017-11-23T13:39:35.892Z,99168.63
2017-11-23T13:42:02.256Z,99171.16
2017-11-23T13:44:28.522Z,99158.11
2017-11-23T13:46:55.595Z,99151.17
2017-11-23T13:49:21.907Z,99148.32
2017-11-23T13:51:48.213Z,99140.47
2017-11-23T13:54:14.455Z,99164.45
2017-11-23T13:56:41.547Z,99167.88
2017-11-23T13:59:07.925Z,99184.45
2017-11-23T14:01:34.197Z,99195.31
2017-11-23T14:04:00.494Z,99197.11
2017-11-23T14:06:26.759Z,99192.58
2017-11-23T14:08:53.072Z,99205.63
2017-11-23T14:11:19.362Z,99207.67
2017-11-23T14:13:45.656Z,99224.28
2017-11-23T14:16:12.072Z,99225.50
2017-11-23T14:18:38.361Z,99222.80
2017-11-23T14:21:04.595Z,99222.44
2017-11-23T14:23:30.906Z,99228.32
2017-11-23T14:25:57.156Z,99229.19
2017-11-23T14:28:24.141Z,99232.39
2017-11-23T14:30:50.393Z,99231.59
2017-11-23T14:33:16.697Z,99230.92
2017-11-23T14:35:42.997Z,99227.41
2017-11-23T14:38:09.287Z,99221.53
2017-11-23T14:40:35.651Z,99234.06
2017-11-23T14:43:01.956Z,99222.55
2017-11-23T14:45:28.280Z,99218.20
2017-11-23T14:47:54.621Z,99217.09
2017-11-23T14:50:20.955Z,99211.63
2017-11-23T14:52:47.242Z,99212.40
2017-11-23T14:55:13.552Z,99217.10
2017-11-23T14:57:40.622Z,99219.17
2017-11-23T15:00:06.927Z,99225.30
2017-11-23T15:02:33.290Z,99226.64
2017-11-23T15:04:59.587Z,99219.66
2017-11-23T15:07:26.601Z,99223.77
2017-11-23T15:09:52.922Z,99236.19
2017-11-23T15:12:19.225Z,99234.05
2017-11-23T15:14:45.515Z,99239.25
2017-11-23T15:17:11.796Z,99242.95
2017-11-23T15:19:38.120Z,99248.80
2017-11-23T15:22:04.515Z,99243.22
2017-11-23T15:24:30.849Z,99242.88
2017-11-23T15:26:57.294Z,99241.13
2017-11-23T15:29:24.364Z,99238.04
2017-11-23T15:31:50.700Z,99241.86
2017-11-23T15:34:16.996Z,99244.94
2017-11-23T15:36:43.297Z,99248.45
2017-11-23T15:39:09.581Z,99245.06
2017-11-23T15:41:35.881Z,99240.30
2017-11-23T15:44:02.131Z,99238.31
2017-11-23T15:46:28.404Z,99228.98
2017-11-23T15:48:54.735Z,99242.43
2017-11-23T15:51:21.080Z,99236.63
2017-11-23T15:53:47.616Z,99241.58
2017-11-23T15:56:14.016Z,99241.88
2017-11-23T15:58:40.313Z,99241.16
2017-11-23T16:01:06.630Z,99245.10
2017-11-23T16:03:32.949Z,99264.00
2017-11-23T16:05:59.332Z,99267.34
2017-11-23T16:08:25.662Z,99278.08
2017-11-23T16:10:51.939Z,99288.30
2017-11-23T16:13:18.383Z,99308.95
2017-11-23T16:15:44.704Z,99299.37
2017-11-23T16:18:11.021Z,99305.64
2017-11-23T16:20:37.381Z,99306.87
2017-11-23T16:23:03.752Z,99293.95
2017-11-23T16:25:30.057Z,99296.16
2017-11-23T16:28:19.524Z,99301.83
2017-11-23T16:30:45.866Z,99304.17
2017-11-23T16:33:12.902Z,99312.59
2017-11-23T16:35:39.202Z,99327.73
2017-11-23T16:38:08.525Z,99329.58
2017-11-23T16:40:49.898Z,99333.47
2017-11-23T16:43:22.125Z,99330.98
2017-11-23T16:49:04.068Z,99347.03
2017-11-23T16:54:58.816Z,99353.45
2017-11-23T16:57:25.140Z,99343.45
2017-11-23T16:59:56.335Z,99339.77
2017-11-23T17:02:28.869Z,99348.33
2017-11-23T17:05:01.415Z,99359.56
2017-11-23T17:07:28.836Z,99362.11
2017-11-23T17:10:01.446Z,99370.02
2017-11-23T17:12:34.066Z,99369.58
2017-11-23T17:18:22.916Z,99383.01
2017-11-23T17:20:49.272Z,99379.34
2017-11-23T17:23:15.637Z,99379.75
2017-11-23T17:25:42.781Z,99377.91
2017-11-23T17:28:09.991Z,99375.35
2017-11-23T17:30:36.335Z,99369.99
2017-11-23T17:33:02.701Z,99375.25
2017-11-23T17:35:30.736Z,99375.37
2017-11-23T17:37:57.127Z,99375.10
2017-11-23T17:40:23.486Z,99381.44
2017-11-23T17:42:49.831Z,99373.06
2017-11-23T17:45:16.132Z,99392.63
2017-11-23T17:47:42.608Z,99383.67
2017-11-23T17:50:08.992Z,99389.89
2017-11-23T17:52:35.644Z,99386.29
2017-11-23T17:55:01.956Z,99377.15
2017-11-23T17:57:28.266Z,99381.86
2017-11-23T17:59:55.387Z,99387.38
2017-11-23T18:02:21.714Z,99382.84
2017-11-23T18:04:48.159Z,99379.31
2017-11-23T18:07:14.587Z,99383.27
2017-11-23T18:09:40.863Z,99384.58
2017-11-23T18:12:07.165Z,99390.44
2017-11-23T18:14:34.255Z,99391.06
2017-11-23T18:17:00.600Z,99391.37
2017-11-23T18:19:26.886Z,99390.47
2017-11-23T18:21:54.976Z,99392.27
2017-11-23T18:24:21.288Z,99386.35
2017-11-23T18:26:47.660Z,99386.59
2017-11-23T18:29:14.093Z,99389.02
2017-11-23T18:31:40.760Z,99379.73
2017-11-23T18:34:07.556Z,99376.78
2017-11-23T18:36:34.497Z,99381.04
2017-11-23T18:39:01.560Z,99383.19
2017-11-23T18:41:28.401Z,99368.43
2017-11-23T18:43:54.756Z,99372.94
2017-11-23T18:46:21.471Z,99361.41
2017-11-23T18:48:47.863Z,99363.83
2017-11-23T18:51:14.787Z,99356.10
2017-11-23T18:53:41.871Z,99356.58
2017-11-23T18:56:08.459Z,99362.22
2017-11-23T18:58:36.465Z,99364.09
2017-11-23T19:01:03.114Z,99372.75
2017-11-23T19:03:31.377Z,99379.62
2017-11-23T19:05:58.093Z,99380.77
2017-11-23T19:08:24.402Z,99391.73
2017-11-23T19:10:50.701Z,99393.20
2017-11-23T19:13:17.159Z,99397.53
2017-11-23T19:15:44.196Z,99397.05
2017-11-23T19:18:10.568Z,99407.27
2017-11-23T19:20:36.878Z,99410.53
2017-11-23T19:23:03.500Z,99411.29
2017-11-23T19:25:30.413Z,99409.75
2017-11-23T19:27:57.518Z,99419.29
2017-11-23T19:30:23.856Z,99422.66
2017-11-23T19:32:50.363Z,99414.36
2017-11-23T19:35:17.265Z,99419.36
2017-11-23T19:37:44.611Z,99410.49
2017-11-23T19:40:10.974Z,99428.11
2017-11-23T19:42:38.033Z,99422.64
2017-11-23T19:45:04.378Z,99428.73
2017-11-23T19:47:31.348Z,99419.17
2017-11-23T19:49:58.069Z,99421.44
2017-11-23T19:52:24.824Z,99423.55
2017-11-23T19:54:51.953Z,99411.15
2017-11-23T19:57:18.434Z,99417.88
2017-11-23T19:59:44.904Z,99428.91
2017-11-23T20:02:11.376Z,99428.17
2017-11-23T20:04:37.892Z,99428.03
2017-11-23T20:07:06.193Z,99425.54
2017-11-23T20:09:32.596Z,99418.95
2017-11-23T20:11:59.425Z,99422.32
2017-11-23T20:14:26.542Z,99424.81
2017-11-23T20:16:52.978Z,99411.86
2017-11-23T20:19:21.655Z,99414.25
2017-11-23T20:21:48.135Z,99405.31
2017-11-23T20:24:14.898Z,99421.73
2017-11-23T20:26:42.035Z,99421.08
2017-11-23T20:29:17.155Z,99419.24
2017-11-23T20:31:43.875Z,99421.73
2017-11-23T20:34:10.801Z,99423.81
2017-11-23T20:36:37.696Z,99423.61
2017-11-23T20:39:04.281Z,99416.47
2017-11-23T20:41:30.797Z,99422.28
2017-11-23T20:43:57.769Z,99426.86
2017-11-23T20:46:24.689Z,99422.07
2017-11-23T20:48:50.994Z,99422.72
2017-11-23T20:51:17.376Z,99427.27
2017-11-23T20:53:43.920Z,99437.64
2017-11-23T20:56:11.163Z,99446.72
2017-11-23T20:58:38.573Z,99452.73
2017-11-23T21:01:07.036Z,99438.36
2017-11-23T21:03:34.285Z,99445.36
2017-11-23T21:06:00.591Z,99455.93
2017-11-23T21:08:27.640Z,99450.20
2017-11-23T21:10:54.518Z,99449.58
2017-11-23T21:13:21.236Z,99451.77
2017-11-23T21:15:48.094Z,99441.77
2017-11-23T21:18:15.888Z,99445.00
2017-11-23T21:20:42.643Z,99443.41
2017-11-23T21:23:09.473Z,99440.44
2017-11-23T21:25:36.798Z,99445.88
2017-11-23T21:28:05.304Z,99447.16
2017-11-23T21:30:32.005Z,99444.27
2017-11-23T21:32:59.508Z,99436.43
2017-11-23T21:35:27.947Z,99434.97
2017-11-23T21:37:54.251Z,99442.81
2017-11-23T21:40:20.967Z,99435.47
2017-11-23T21:42:47.259Z,99434.43
2017-11-23T21:45:14.408Z,99433.60
2017-11-23T21:47:40.785Z,99432.63
2017-11-23T21:50:07.234Z,99438.40
2017-11-23T21:52:34.173Z,99444.63
2017-11-23T21:55:00.893Z,99457.65
2017-11-23T21:57:27.739Z,99450.27
2017-11-23T21:59:54.883Z,99455.75
2017-11-23T22:02:21.186Z,99461.98
2017-11-23T22:04:48.336Z,99459.19
2017-11-23T22:07:15.792Z,99449.30
2017-11-23T22:09:43.179Z,99456.71
2017-11-23T22:12:10.027Z,99450.13
2017-11-23T22:14:36.937Z,99457.52
2017-11-23T22:17:04.869Z,99450.73
2017-11-23T22:19:31.668Z,99454.54
2017-11-23T22:21:57.968Z,99454.73
2017-11-23T22:24:26.448Z,99457.22
2017-11-23T22:26:53.382Z,99461.67
2017-11-23T22:29:20.302Z,99452.33
2017-11-23T22:31:52.033Z,99463.14
2017-11-23T22:34:18.955Z,99469.29
2017-11-23T22:36:46.572Z,99470.98
2017-11-23T22:39:13.766Z,99487.29
2017-11-23T22:41:41.520Z,99489.42
2017-11-23T22:44:09.179Z,99493.72
2017-11-23T22:46:36.626Z,99488.36
2017-11-23T22:49:03.531Z,99481.81
2017-11-23T22:51:30.685Z,99497.91
2017-11-23T22:53:57.459Z,99489.92
2017-11-23T22:56:24.921Z,99488.20
2017-11-23T22:58:51.587Z,99488.30
2017-11-23T23:01:18.504Z,99490.31
2017-11-23T23:03:45.921Z,99486.22
2017-11-23T23:06:13.638Z,99481.71
2017-11-23T23:08:40.674Z,99484.07
2017-11-23T23:11:07.005Z,99489.16
2017-11-23T23:13:33.279Z,99492.31
2017-11-23T23:16:01.688Z,99487.84
2017-11-23T23:18:29.783Z,99491.27
2017-11-23T23:20:56.782Z,99491.97
2017-11-23T23:23:23.620Z,99495.01
2017-11-23T23:25:49.979Z,99489.69
2017-11-23T23:28:16.370Z,99490.56
2017-11-23T23:30:43.476Z,99494.86
2017-11-23T23:33:10.306Z,99492.94
2017-11-23T23:35:37.532Z,99490.44
2017-11-23T23:38:04.572Z,99497.91
2017-11-23T23:40:30.882Z,99496.65
2017-11-23T23:42:57.974Z,99497.97
2017-11-23T23:45:24.258Z,99502.00
2017-11-23T23:47:50.587Z,99498.25
2017-11-23T23:50:16.902Z,99495.59
2017-11-23T23:52:44.117Z,99493.17
2017-11-23T23:55:10.455Z,99499.26
2017-11-23T23:57:36.831Z,99494.83
